• Join FlightAware (Why Join?)
  • Login
  • US Flag 
01:58AM EDT


 

Airport Tracker/Info


-or-


 

Live Flight TrackerFlight Track Log ✈ TRS886 ✈ 13-05-2013 ✈ KMCO - KSTL

Flight Track Log - Related Links

Times and Time Zones

All times are in EDT time to prevent confusion due to time zone crossing. See the TRS886 flight status page for this flight to view local times or setup timezone preferences in your user account.

Time Position Orientation Groundspeed Altitude Reporting Facility
EDT Latitude Longitude Course Direction KTS MPH feet Rate Location/Type
02:10PM 28.4333 -81.3000 360° North 152 175 500  Level Orlando TRACON
02:11PM 28.4667 -81.3000 360° North 181 208 1,900 1,860 Climbing Orlando TRACON
02:12PM 28.5167 -81.3167 344° North 221 254 3,600 1,920 Climbing Orlando TRACON
02:13PM 28.5667 -81.3500 330° Northwest 251 289 5,800 2,220 Climbing Orlando TRACON
02:14PM 28.5500 -81.4333 257° West 257 296 8,100 2,340 Climbing Orlando TRACON
02:15PM 28.5333 -81.5167 257° West 262 302 10,800 2,400 Climbing Orlando TRACON
02:16PM 28.5000 -81.6000 246° West 268 308 13,200 1,860 Climbing Orlando TRACON
02:18PM 28.4703 -81.7308 256° West 289 333 16,000 1,320 Climbing Jacksonville Center
02:19PM 28.4439 -81.8278 253° West 300 345 16,900 1,260 Climbing Jacksonville Center
02:20PM 28.4114 -81.9414 252° West 333 383 18,600 1,440 Climbing Jacksonville Center
02:21PM 28.3914 -82.0525 258° West 349 402 19,900 1,380 Climbing Jacksonville Center
02:22PM 28.4003 -82.1706 275° West 371 427 21,400 1,560 Climbing Jacksonville Center
02:23PM 28.4156 -82.2861 279° West 371 427 23,100 1,500 Climbing Jacksonville Center
02:24PM 28.4350 -82.4064 280° West 379 436 24,500 1,200 Climbing Jacksonville Center
02:25PM 28.5186 -82.4886 319° Northwest 375 432 25,500 1,080 Climbing Jacksonville Center
02:26PM 28.6128 -82.5686 323° Northwest 392 451 26,700 1,200 Climbing Jacksonville Center
02:27PM 28.7089 -82.6442 325° Northwest 405 466 28,000 1,320 Climbing Jacksonville Center
02:28PM 28.8072 -82.7197 326° Northwest 420 483 29,400 1,500 Climbing Jacksonville Center
02:29PM 28.8886 -82.7883 324° Northwest 420 483 31,000 1,440 Climbing Jacksonville Center
02:30PM 28.9783 -82.8617 324° Northwest 415 478 32,300 1,200 Climbing Jacksonville Center
02:31PM 29.0683 -82.9378 324° Northwest 408 470 33,500 840 Climbing Jacksonville Center
02:32PM 29.1578 -83.0092 325° Northwest 408 470 34,000 180 Climbing Jacksonville Center
02:33PM 29.2517 -83.0831 326° Northwest 408 470 33,900  Descending Jacksonville Center
02:34PM 29.3414 -83.1569 324° Northwest 403 464 34,000  Climbing Jacksonville Center
02:35PM 29.4311 -83.2311 324° Northwest 403 464 34,000  Level Jacksonville Center
02:36PM 29.5206 -83.3031 325° Northwest 403 464 34,000  Level Jacksonville Center
02:37PM 29.6100 -83.3775 324° Northwest 403 464 34,000  Level Jacksonville Center
02:38PM 29.6994 -83.4519 324° Northwest 403 464 34,000  Level Jacksonville Center
02:39PM 29.7889 -83.5267 324° Northwest 403 464 34,000  Level Jacksonville Center
02:40PM 29.8803 -83.6017 325° Northwest 403 464 34,000 -60 Level Jacksonville Center
02:41PM 29.9656 -83.6694 325° Northwest 397 457 33,900  Descending Jacksonville Center
02:42PM 30.0528 -83.7444 323° Northwest 392 451 34,000  Climbing Jacksonville Center
02:43PM 30.1422 -83.8150 326° Northwest 392 451 33,900  Descending Jacksonville Center
02:44PM 30.2272 -83.8856 324° Northwest 392 451 34,000  Climbing Jacksonville Center
02:45PM 30.3142 -83.9608 323° Northwest 392 451 33,900  Descending Jacksonville Center
02:46PM 30.4014 -84.0317 325° Northwest 387 445 34,000  Climbing Jacksonville Center
02:47PM 30.4864 -84.1028 324° Northwest 387 445 34,000 -60 Level Jacksonville Center
02:48PM 30.5733 -84.1761 324° Northwest 387 445 33,900  Descending Jacksonville Center
02:49PM 30.6622 -84.2497 325° Northwest 377 434 34,000  Climbing Jacksonville Center
02:50PM 30.7428 -84.3211 323° Northwest 372 428 34,000  Level Jacksonville Center
02:51PM 30.8297 -84.3925 325° Northwest 367 422 34,000  Level Jacksonville Center
02:52PM 30.9103 -84.4617 324° Northwest 367 422 34,000  Level Jacksonville Center
02:53PM 30.9889 -84.5283 324° Northwest 361 415 34,000  Level Jacksonville Center
02:54PM 31.0736 -84.6025 323° Northwest 361 415 34,000  Level Jacksonville Center
02:55PM 31.1561 -84.6697 325° Northwest 361 415 34,000  Level Jacksonville Center
02:56PM 31.2344 -84.7392 323° Northwest 361 415 34,000  Level Jacksonville Center
02:57PM 31.3189 -84.8114 324° Northwest 361 415 34,000  Level Jacksonville Center
02:59PM 31.5094 -84.9742 324° Northwest 389 448 34,000  Level Atlanta Center
03:00PM 31.5942 -85.0506 322° Northwest 389 448 34,000  Level Atlanta Center
03:01PM 31.6814 -85.1247 324° Northwest 389 448 34,000  Level Atlanta Center
03:02PM 31.7703 -85.2042 323° Northwest 389 448 34,000  Level Atlanta Center
03:03PM 31.8614 -85.2786 325° Northwest 394 453 34,000  Level Atlanta Center
03:04PM 31.9525 -85.3581 324° Northwest 394 453 34,000  Level Atlanta Center
03:05PM 32.0433 -85.4403 323° Northwest 399 459 34,000  Level Atlanta Center
03:06PM 32.1344 -85.5178 324° Northwest 405 466 34,000  Level Atlanta Center
03:07PM 32.2336 -85.5906 328° Northwest 411 473 34,000  Level Atlanta Center
03:08PM 32.3308 -85.6611 328° Northwest 418 481 34,000  Level Atlanta Center
03:09PM 32.4300 -85.7344 328° Northwest 418 481 34,000  Level Atlanta Center
03:10PM 32.5272 -85.8053 328° Northwest 412 474 34,000  Level Atlanta Center
03:11PM 32.6242 -85.8811 327° Northwest 412 474 34,000  Level Atlanta Center
03:12PM 32.7211 -85.9522 328° Northwest 412 474 34,000  Level Atlanta Center
03:13PM 32.8161 -86.0261 327° Northwest 412 474 34,000  Level Atlanta Center
03:14PM 32.9131 -86.0900 331° Northwest 407 468 34,000  Level Atlanta Center
03:15PM 33.0097 -86.1742 324° Northwest 412 474 34,000  Level Atlanta Center
03:16PM 33.1067 -86.2458 328° Northwest 412 474 34,000  Level Atlanta Center
03:17PM 33.1992 -86.3178 327° Northwest 407 468 34,000  Level Atlanta Center
03:18PM 33.2939 -86.3872 329° Northwest 407 468 34,000  Level Atlanta Center
03:19PM 33.3844 -86.4594 326° Northwest 407 468 34,000  Level Atlanta Center
03:20PM 33.4769 -86.5292 328° Northwest 407 468 34,000  Level Atlanta Center
03:21PM 33.5714 -86.6019 327° Northwest 407 468 34,000  Level Atlanta Center
03:22PM 33.6658 -86.6744 327° Northwest 407 468 34,000  Level Atlanta Center
03:23PM 33.7622 -86.7500 327° Northwest 407 468 34,000  Level Atlanta Center
03:25PM 33.9511 -86.8942 328° Northwest 416 479 34,000  Level Memphis Center
03:26PM 34.0367 -86.9683 324° Northwest 422 486 34,000  Level Memphis Center
03:27PM 34.1325 -87.0422 327° Northwest 416 479 34,000  Level Memphis Center
03:28PM 34.2242 -87.1117 328° Northwest 401 461 34,000  Level Memphis Center
03:29PM 34.3200 -87.1883 327° Northwest 401 461 34,000  Level Memphis Center
03:30PM 34.4136 -87.2581 328° Northwest 401 461 34,000  Level Memphis Center
03:31PM 34.5072 -87.3303 328° Northwest 401 461 34,000  Level Memphis Center
03:32PM 34.6092 -87.4125 326° Northwest 401 461 34,000  Level Memphis Center
03:33PM 34.7008 -87.4900 325° Northwest 407 468 34,000  Level Memphis Center
03:34PM 34.7878 -87.5528 329° Northwest 407 468 34,000  Level Memphis Center
03:35PM 34.8900 -87.6406 325° Northwest 396 456 34,000  Level Memphis Center
03:36PM 34.9811 -87.7111 328° Northwest 401 461 34,000  Level Memphis Center
03:37PM 35.0767 -87.7892 326° Northwest 404 465 34,000  Level Memphis Center
03:38PM 35.1594 -87.8528 328° Northwest 404 465 34,000  Level Memphis Center
03:39PM 35.2525 -87.9264 327° Northwest 404 465 34,000  Level Memphis Center
03:40PM 35.3458 -88.0025 326° Northwest 404 465 34,000  Level Memphis Center
03:41PM 35.4392 -88.0839 325° Northwest 410 472 34,000  Level Memphis Center
03:42PM 35.5383 -88.1578 329° Northwest 400 460 34,000  Level Memphis Center
03:43PM 35.6336 -88.2319 328° Northwest 400 460 34,000  Level Memphis Center
03:44PM 35.7267 -88.3086 326° Northwest 400 460 34,000  Level Memphis Center
03:45PM 35.8175 -88.3858 325° Northwest 400 460 34,000  Level Memphis Center
03:46PM 35.9106 -88.4606 327° Northwest 405 466 34,000  Level Memphis Center
03:47PM 36.0014 -88.5353 326° Northwest 400 460 34,000  Level Memphis Center
03:48PM 36.0942 -88.6103 327° Northwest 400 460 34,000  Level Memphis Center
03:49PM 36.1847 -88.6881 325° Northwest 405 466 34,000  Level Memphis Center
03:50PM 36.2756 -88.7661 325° Northwest 405 466 34,000  Level Memphis Center
03:51PM 36.3681 -88.8417 327° Northwest 405 466 34,000 -960 Level Memphis Center
03:52PM 36.4628 -88.9197 326° Northwest 405 466 32,100 -1,020 Descending Memphis Center
03:53PM 36.5556 -88.9981 326° Northwest 405 466 32,000 -60 Descending Memphis Center
03:54PM 36.6503 -89.0794 325° Northwest 405 466 32,000  Level Memphis Center
03:55PM 36.7406 -89.1581 325° Northwest 405 466 32,000 -300 Level Memphis Center
03:56PM 36.8350 -89.2397 325° Northwest 405 466 31,400 -720 Descending Memphis Center
03:57PM 36.9297 -89.3189 326° Northwest 405 466 30,600 -780 Descending Memphis Center
03:58PM 37.0197 -89.3981 325° Northwest 405 466 29,900 -1,380 Descending Memphis Center
04:01PM 37.2289 -89.5742 326° Northwest 387 445 26,100 -1,200 Descending Kansas City Center
04:02PM 37.3228 -89.6281 335° Northwest 375 432 25,900 -600 Descending Kansas City Center
04:03PM 37.4181 -89.6767 338° Northwest 370 426 24,900 -960 Descending Kansas City Center
04:04PM 37.5119 -89.7294 336° Northwest 369 425 24,000 -300 Descending Kansas City Center
04:06PM 37.6956 -89.8283 337° Northwest 350 403 24,000 -780 Level Kansas City Center
04:07PM 37.8014 -89.8867 336° Northwest 348 400 21,700 -2,460 Descending Kansas City Center
04:08PM 37.8903 -89.9361 336° Northwest 334 384 19,000 -2,520 Descending Kansas City Center
04:09PM 37.9719 -89.9783 338° Northwest 320 368 16,600 -2,520 Descending Kansas City Center
04:10PM 38.0567 -90.0275 335° Northwest 311 358 13,800 -2,340 Descending Kansas City Center
04:11PM 38.1233 -90.0617 338° Northwest 301 346 11,800 -1,500 Descending Kansas City Center
04:12PM 38.2031 -90.0775 351° North 296 341 10,700 -1,020 Descending Kansas City Center
04:13PM 38.2919 -90.0883 355° North 271 312 9,800 -960 Descending Kansas City Center
04:14PM 38.3656 -90.0953 356° North 268 308 8,800 -1,380 Descending Kansas City Center
04:15PM 38.4344 -90.1264 341° North 259 298 7,000 -1,740 Descending Kansas City Center
04:16PM 38.5014 -90.1597 339° North 259 298 5,300 -1,380 Descending Kansas City Center
04:17PM 38.5714 -90.1944 339° North 265 305 4,200 -1,140 Descending Kansas City Center
04:18PM 38.6547 -90.2369 338° Northwest 269 310 3,000 -1,200 Descending Kansas City Center
04:19PM 38.7078 -90.2767 330° Northwest 240 276 1,800 -1,020 Descending Kansas City Center
04:20PM 38.7308 -90.3236 302° West 186 214 1,000 -600 Descending Kansas City Center
04:21PM 38.7556 -90.3714 304° West 168 193 600 -420 Descending Kansas City Center
04:23PM 38.7487 -90.3700 90° East  Level Estimated